sensor_id;sensor_type;location;lat;lon;timestamp;pressure;altitude;pressure_sealevel;temperature;humidity
68891;BME280;55932;48.702;8.884;2023-02-02T00:03:28;96740;;;4.5;76
68891;BME280;55932;48.702;8.884;2023-02-02T00:13:31;96730;;;4.5;76
68891;BME280;55932;48.702;8.884;2023-02-02T00:17:07;96720;;;4.5;76
68891;BME280;55932;48.702;8.884;2023-02-02T00:21:16;96730;;;4.5;76
68891;BME280;55932;48.702;8.884;2023-02-02T00:23:47;96730;;;4.5;76
68891;BME280;55932;48.702;8.884;2023-02-02T00:28:40;96720;;;4.6;76
68891;BME280;55932;48.702;8.884;2023-02-02T00:31:11;96730;;;4.6;76
68891;BME280;55932;48.702;8.884;2023-02-02T00:33:44;96740;;;4.6;76
68891;BME280;55932;48.702;8.884;2023-02-02T00:41:08;96730;;;4.6;76
68891;BME280;55932;48.702;8.884;2023-02-02T00:46:12;96730;;;4.7;75.5
68891;BME280;55932;48.702;8.884;2023-02-02T00:48:48;96730;;;4.7;76
68891;BME280;55932;48.702;8.884;2023-02-02T00:51:11;96720;;;4.7;76
68891;BME280;55932;48.702;8.884;2023-02-02T00:53:42;96720;;;4.7;76
68891;BME280;55932;48.702;8.884;2023-02-02T01:08:47;96710;;;4.8;76
68891;BME280;55932;48.702;8.884;2023-02-02T01:11:31;96720;;;4.7;75.5
68891;BME280;55932;48.702;8.884;2023-02-02T01:14:01;96720;;;4.7;76
68891;BME280;55932;48.702;8.884;2023-02-02T01:16:31;96720;;;4.6;76
68891;BME280;55932;48.702;8.884;2023-02-02T01:23:56;96730;;;4.3;76
68891;BME280;55932;48.702;8.884;2023-02-02T01:26:27;96730;;;4.3;76
68891;BME280;55932;48.702;8.884;2023-02-02T01:31:35;96740;;;4.3;76
68891;BME280;55932;48.702;8.884;2023-02-02T01:34:05;96730;;;4.2;76
68891;BME280;55932;48.702;8.884;2023-02-02T01:36:35;96730;;;4.2;76
68891;BME280;55932;48.702;8.884;2023-02-02T01:38:59;96730;;;4.3;76
68891;BME280;55932;48.702;8.884;2023-02-02T01:41:30;96730;;;4.3;76
68891;BME280;55932;48.702;8.884;2023-02-02T01:46:39;96720;;;4.4;76
68891;BME280;55932;48.702;8.884;2023-02-02T01:53:58;96720;;;4.5;76
68891;BME280;55932;48.702;8.884;2023-02-02T01:56:32;96720;;;4.5;76
68891;BME280;55932;48.702;8.884;2023-02-02T01:59:16;96720;;;4.6;76
68891;BME280;55932;48.702;8.884;2023-02-02T02:01:30;96730;;;4.7;75.5
68891;BME280;55932;48.702;8.884;2023-02-02T02:04:01;96730;;;4.7;75.5
68891;BME280;55932;48.702;8.884;2023-02-02T02:09:03;96720;;;4.7;76
68891;BME280;55932;48.702;8.884;2023-02-02T02:11:34;96730;;;4.7;76
68891;BME280;55932;48.702;8.884;2023-02-02T02:14:05;96730;;;4.7;76
68891;BME280;55932;48.702;8.884;2023-02-02T02:24:33;96720;;;4.7;76
68891;BME280;55932;48.702;8.884;2023-02-02T02:27:25;96720;;;4.7;76
68891;BME280;55932;48.702;8.884;2023-02-02T02:29:26;96730;;;4.7;76
68891;BME280;55932;48.702;8.884;2023-02-02T02:36:49;96730;;;4.7;76
68891;BME280;55932;48.702;8.884;2023-02-02T02:39:17;96720;;;4.7;76
68891;BME280;55932;48.702;8.884;2023-02-02T02:41:48;96730;;;4.7;76
68891;BME280;55932;48.702;8.884;2023-02-02T02:46:42;96730;;;4.8;76
68891;BME280;55932;48.702;8.884;2023-02-02T02:49:13;96720;;;4.8;76
68891;BME280;55932;48.702;8.884;2023-02-02T02:51:51;96730;;;4.7;76
68891;BME280;55932;48.702;8.884;2023-02-02T02:54:16;96720;;;4.7;76
68891;BME280;55932;48.702;8.884;2023-02-02T02:56:54;96730;;;4.7;76
68891;BME280;55932;48.702;8.884;2023-02-02T02:59:20;96730;;;4.7;76
68891;BME280;55932;48.702;8.884;2023-02-02T03:01:58;96730;;;4.7;76
68891;BME280;55932;48.702;8.884;2023-02-02T03:04:21;96730;;;4.7;76
68891;BME280;55932;48.702;8.884;2023-02-02T03:06:58;96730;;;4.7;76
68891;BME280;55932;48.702;8.884;2023-02-02T03:09:27;96730;;;4.7;76
68891;BME280;55932;48.702;8.884;2023-02-02T03:12:03;96740;;;4.7;76
68891;BME280;55932;48.702;8.884;2023-02-02T03:14:35;96730;;;4.7;76
68891;BME280;55932;48.702;8.884;2023-02-02T03:19:22;96740;;;4.7;76
68891;BME280;55932;48.702;8.884;2023-02-02T03:21:53;96730;;;4.7;76
68891;BME280;55932;48.702;8.884;2023-02-02T03:24:24;96740;;;4.7;76
68891;BME280;55932;48.702;8.884;2023-02-02T03:26:55;96740;;;4.6;76
68891;BME280;55932;48.702;8.884;2023-02-02T03:29:29;96730;;;4.7;76
68891;BME280;55932;48.702;8.884;2023-02-02T03:31:56;96730;;;4.7;76
68891;BME280;55932;48.702;8.884;2023-02-02T03:44:36;96730;;;4.6;76
68891;BME280;55932;48.702;8.884;2023-02-02T03:47:06;96740;;;4.7;76
68891;BME280;55932;48.702;8.884;2023-02-02T03:49:38;96740;;;4.7;76
68891;BME280;55932;48.702;8.884;2023-02-02T03:52:01;96750;;;4.6;76
68891;BME280;55932;48.702;8.884;2023-02-02T03:54:32;96730;;;4.6;76
68891;BME280;55932;48.702;8.884;2023-02-02T03:57:03;96730;;;4.5;76
68891;BME280;55932;48.702;8.884;2023-02-02T04:04:35;96730;;;4.5;76
68891;BME280;55932;48.702;8.884;2023-02-02T04:07:06;96740;;;4.5;76
68891;BME280;55932;48.702;8.884;2023-02-02T04:09:37;96740;;;4.6;76
68891;BME280;55932;48.702;8.884;2023-02-02T04:12:14;96720;;;4.6;76
68891;BME280;55932;48.702;8.884;2023-02-02T04:14:45;96730;;;4.6;76
68891;BME280;55932;48.702;8.884;2023-02-02T04:22:10;96740;;;4.5;76
68891;BME280;55932;48.702;8.884;2023-02-02T04:24:41;96730;;;4.5;76
68891;BME280;55932;48.702;8.884;2023-02-02T04:34:44;96750;;;4.6;76
68891;BME280;55932;48.702;8.884;2023-02-02T04:37:15;96750;;;4.6;76
68891;BME280;55932;48.702;8.884;2023-02-02T04:42:23;96760;;;4.6;76
68891;BME280;55932;48.702;8.884;2023-02-02T04:44:54;96770;;;4.6;76
68891;BME280;55932;48.702;8.884;2023-02-02T04:47:24;96770;;;4.6;76
68891;BME280;55932;48.702;8.884;2023-02-02T04:49:49;96780;;;4.7;76
68891;BME280;55932;48.702;8.884;2023-02-02T04:52:19;96780;;;4.7;76
68891;BME280;55932;48.702;8.884;2023-02-02T04:54:50;96780;;;4.6;76
68891;BME280;55932;48.702;8.884;2023-02-02T04:57:34;96780;;;4.6;76
68891;BME280;55932;48.702;8.884;2023-02-02T05:00:11;96790;;;4.6;76
68891;BME280;55932;48.702;8.884;2023-02-02T05:07:30;96800;;;4.7;76
68891;BME280;55932;48.702;8.884;2023-02-02T05:10:00;96800;;;4.7;76
68891;BME280;55932;48.702;8.884;2023-02-02T05:15:08;96800;;;4.7;76
68891;BME280;55932;48.702;8.884;2023-02-02T05:20:09;96810;;;4.8;76
68891;BME280;55932;48.702;8.884;2023-02-02T05:22:39;96820;;;4.8;76
68891;BME280;55932;48.702;8.884;2023-02-02T05:25:09;96810;;;4.8;76
68891;BME280;55932;48.702;8.884;2023-02-02T05:27:41;96800;;;4.8;76
68891;BME280;55932;48.702;8.884;2023-02-02T05:30:11;96820;;;4.8;76
68891;BME280;55932;48.702;8.884;2023-02-02T05:35:06;96820;;;4.8;76
68891;BME280;55932;48.702;8.884;2023-02-02T05:37:37;96830;;;4.8;76
68891;BME280;55932;48.702;8.884;2023-02-02T05:42:46;96840;;;4.8;76
68891;BME280;55932;48.702;8.884;2023-02-02T05:45:15;96840;;;4.8;76
68891;BME280;55932;48.702;8.884;2023-02-02T05:47:39;96840;;;4.8;76
68891;BME280;55932;48.702;8.884;2023-02-02T05:50:10;96850;;;4.8;76
68891;BME280;55932;48.702;8.884;2023-02-02T05:52:41;96850;;;4.8;75.5
68891;BME280;55932;48.702;8.884;2023-02-02T06:02:38;96840;;;4.9;75.5
68891;BME280;55932;48.702;8.884;2023-02-02T06:05:08;96840;;;4.9;76
68891;BME280;55932;48.702;8.884;2023-02-02T06:12:41;96860;;;4.9;75.5
68891;BME280;55932;48.702;8.884;2023-02-02T06:15:12;96870;;;4.9;76
68891;BME280;55932;48.702;8.884;2023-02-02T06:17:43;96860;;;4.9;76
68891;BME280;55932;48.702;8.884;2023-02-02T06:20:13;96850;;;4.9;76
68891;BME280;55932;48.702;8.884;2023-02-02T06:22:57;96850;;;4.9;76
68891;BME280;55932;48.702;8.884;2023-02-02T06:25:27;96850;;;4.9;76
68891;BME280;55932;48.702;8.884;2023-02-02T06:27:58;96860;;;5;75.5
68891;BME280;55932;48.702;8.884;2023-02-02T06:32:51;96860;;;5;75.5
68891;BME280;55932;48.702;8.884;2023-02-02T06:35:23;96860;;;5;75.5
68891;BME280;55932;48.702;8.884;2023-02-02T06:37:54;96870;;;4.9;76
68891;BME280;55932;48.702;8.884;2023-02-02T06:40:31;96870;;;4.8;76
68891;BME280;55932;48.702;8.884;2023-02-02T06:43:09;96860;;;4.8;76
68891;BME280;55932;48.702;8.884;2023-02-02T06:45:45;96870;;;4.7;76
68891;BME280;55932;48.702;8.884;2023-02-02T06:50:26;96880;;;4.6;76
68891;BME280;55932;48.702;8.884;2023-02-02T06:52:57;96880;;;4.5;76
68891;BME280;55932;48.702;8.884;2023-02-02T06:57:56;96880;;;4.2;76
68891;BME280;55932;48.702;8.884;2023-02-02T07:00:24;96880;;;4.2;76
68891;BME280;55932;48.702;8.884;2023-02-02T07:10:26;96880;;;4.1;76.5
68891;BME280;55932;48.702;8.884;2023-02-02T07:12:57;96880;;;4.2;76
68891;BME280;55932;48.702;8.884;2023-02-02T07:15:28;96880;;;4.2;76
68891;BME280;55932;48.702;8.884;2023-02-02T07:17:59;96870;;;4.2;76
68891;BME280;55932;48.702;8.884;2023-02-02T07:23:13;96880;;;4.3;76
68891;BME280;55932;48.702;8.884;2023-02-02T07:25:43;96880;;;4.4;76
68891;BME280;55932;48.702;8.884;2023-02-02T07:28:14;96880;;;4.4;76
68891;BME280;55932;48.702;8.884;2023-02-02T07:30:43;96880;;;4.4;76
68891;BME280;55932;48.702;8.884;2023-02-02T07:33:23;96890;;;4.5;76
68891;BME280;55932;48.702;8.884;2023-02-02T07:35:51;96890;;;4.5;76
68891;BME280;55932;48.702;8.884;2023-02-02T07:40:39;96890;;;4.6;76
68891;BME280;55932;48.702;8.884;2023-02-02T07:43:10;96890;;;4.6;76
68891;BME280;55932;48.702;8.884;2023-02-02T07:45:41;96890;;;4.7;76
68891;BME280;55932;48.702;8.884;2023-02-02T07:50:49;96900;;;4.8;76
68891;BME280;55932;48.702;8.884;2023-02-02T07:53:19;96900;;;4.9;76
68891;BME280;55932;48.702;8.884;2023-02-02T07:55:45;96900;;;4.9;76
68891;BME280;55932;48.702;8.884;2023-02-02T07:58:14;96890;;;5;75.5
68891;BME280;55932;48.702;8.884;2023-02-02T08:00:45;96900;;;5;76
68891;BME280;55932;48.702;8.884;2023-02-02T08:03:16;96890;;;5.1;76
68891;BME280;55932;48.702;8.884;2023-02-02T08:05:54;96870;;;5.1;75.5
68891;BME280;55932;48.702;8.884;2023-02-02T08:08:31;96870;;;5.2;75.5
68891;BME280;55932;48.702;8.884;2023-02-02T08:13:19;96870;;;5.3;75.5
68891;BME280;55932;48.702;8.884;2023-02-02T08:15:50;96860;;;5.4;75.5
68891;BME280;55932;48.702;8.884;2023-02-02T08:18:27;96880;;;5.4;75.5
68891;BME280;55932;48.702;8.884;2023-02-02T08:20:45;96870;;;5.4;75.5
68891;BME280;55932;48.702;8.884;2023-02-02T08:23:16;96870;;;5.5;75.5
68891;BME280;55932;48.702;8.884;2023-02-02T08:25:46;96870;;;5.5;75.5
68891;BME280;55932;48.702;8.884;2023-02-02T08:33:19;96870;;;5.7;75.5
68891;BME280;55932;48.702;8.884;2023-02-02T08:35:50;96880;;;5.7;75.5
68891;BME280;55932;48.702;8.884;2023-02-02T08:38:22;96890;;;5.7;75.5
68891;BME280;55932;48.702;8.884;2023-02-02T08:43:28;96900;;;5.6;75.5
68891;BME280;55932;48.702;8.884;2023-02-02T08:45:59;96910;;;5.6;75.5
68891;BME280;55932;48.702;8.884;2023-02-02T08:50:55;96920;;;5.6;75.5
68891;BME280;55932;48.702;8.884;2023-02-02T08:53:25;96930;;;5.5;75.5
68891;BME280;55932;48.702;8.884;2023-02-02T09:01:05;96930;;;5.6;75.5
68891;BME280;55932;48.702;8.884;2023-02-02T09:03:28;96940;;;5.6;75.5
68891;BME280;55932;48.702;8.884;2023-02-02T09:06:02;96960;;;5.6;75.5
68891;BME280;55932;48.702;8.884;2023-02-02T09:08:36;96960;;;5.6;75.5
68891;BME280;55932;48.702;8.884;2023-02-02T09:11:08;96960;;;5.6;75.5
68891;BME280;55932;48.702;8.884;2023-02-02T09:13:39;96960;;;5.6;75.5
68891;BME280;55932;48.702;8.884;2023-02-02T09:18:32;96960;;;5.6;75.5
68891;BME280;55932;48.702;8.884;2023-02-02T09:28:36;96960;;;5.4;76
68891;BME280;55932;48.702;8.884;2023-02-02T09:31:06;96970;;;5.4;76
68891;BME280;55932;48.702;8.884;2023-02-02T09:33:38;96960;;;5.3;76
68891;BME280;55932;48.702;8.884;2023-02-02T09:44:06;96970;;;5.5;76
68891;BME280;55932;48.702;8.884;2023-02-02T09:48:59;96980;;;5.7;75.5
68891;BME280;55932;48.702;8.884;2023-02-02T09:51:24;96980;;;5.7;75.5
68891;BME280;55932;48.702;8.884;2023-02-02T09:53:50;96980;;;5.7;75.5
68891;BME280;55932;48.702;8.884;2023-02-02T09:56:21;96990;;;5.7;75.5
68891;BME280;55932;48.702;8.884;2023-02-02T09:58:51;96980;;;5.7;75.5
68891;BME280;55932;48.702;8.884;2023-02-02T10:05:01;96980;;;5.8;75.5
68891;BME280;55932;48.702;8.884;2023-02-02T10:09:00;96990;;;5.8;75.5
68891;BME280;55932;48.702;8.884;2023-02-02T10:14:08;96980;;;5.8;75.5
68891;BME280;55932;48.702;8.884;2023-02-02T10:16:34;96990;;;5.8;75.5
68891;BME280;55932;48.702;8.884;2023-02-02T10:21:28;96980;;;5.8;75.5
68891;BME280;55932;48.702;8.884;2023-02-02T10:23:54;96970;;;5.8;75.5
68891;BME280;55932;48.702;8.884;2023-02-02T10:26:42;96980;;;5.7;75.5
68891;BME280;55932;48.702;8.884;2023-02-02T10:34:12;96990;;;5.5;75.5
68891;BME280;55932;48.702;8.884;2023-02-02T10:36:37;96990;;;5.6;75.5
68891;BME280;55932;48.702;8.884;2023-02-02T10:39:06;96980;;;5.7;75.5
68891;BME280;55932;48.702;8.884;2023-02-02T10:44:01;96980;;;5.8;75.5
68891;BME280;55932;48.702;8.884;2023-02-02T10:46:37;97000;;;5.8;75.5
68891;BME280;55932;48.702;8.884;2023-02-02T10:51:35;96990;;;6;75.5
68891;BME280;55932;48.702;8.884;2023-02-02T10:56:41;97000;;;5.9;75.5
68891;BME280;55932;48.702;8.884;2023-02-02T10:59:10;97000;;;5.7;75.5
68891;BME280;55932;48.702;8.884;2023-02-02T11:01:36;97000;;;5.5;76
68891;BME280;55932;48.702;8.884;2023-02-02T11:04:08;97010;;;5.5;76
68891;BME280;55932;48.702;8.884;2023-02-02T11:09:02;97010;;;5.6;76
68891;BME280;55932;48.702;8.884;2023-02-02T11:11:37;97010;;;5.6;76
68891;BME280;55932;48.702;8.884;2023-02-02T11:14:15;97020;;;5.7;76
68891;BME280;55932;48.702;8.884;2023-02-02T11:16:41;97010;;;5.7;76
68891;BME280;55932;48.702;8.884;2023-02-02T11:19:21;97010;;;5.7;76
68891;BME280;55932;48.702;8.884;2023-02-02T11:21:44;97000;;;5.8;76
68891;BME280;55932;48.702;8.884;2023-02-02T11:24:17;97000;;;6;75.5
68891;BME280;55932;48.702;8.884;2023-02-02T11:26:45;96990;;;6;75.5
68891;BME280;55932;48.702;8.884;2023-02-02T11:34:08;97000;;;6;75.5
68891;BME280;55932;48.702;8.884;2023-02-02T11:36:37;97010;;;6;75.5
68891;BME280;55932;48.702;8.884;2023-02-02T11:39:13;97000;;;6.1;75.5
68891;BME280;55932;48.702;8.884;2023-02-02T11:41:39;97010;;;6;75.5
68891;BME280;55932;48.702;8.884;2023-02-02T11:44:16;97000;;;6;75.5
68891;BME280;55932;48.702;8.884;2023-02-02T11:49:15;97010;;;5.8;76
68891;BME280;55932;48.702;8.884;2023-02-02T11:51:44;97010;;;5.8;76
68891;BME280;55932;48.702;8.884;2023-02-02T11:54:15;97000;;;5.7;76
68891;BME280;55932;48.702;8.884;2023-02-02T11:56:52;96990;;;5.8;76
68891;BME280;55932;48.702;8.884;2023-02-02T11:59:31;97000;;;5.7;76
68891;BME280;55932;48.702;8.884;2023-02-02T12:04:20;96990;;;5.6;76
68891;BME280;55932;48.702;8.884;2023-02-02T12:09:26;96980;;;5.6;75.5
68891;BME280;55932;48.702;8.884;2023-02-02T12:12:01;96980;;;5.6;75.5
68891;BME280;55932;48.702;8.884;2023-02-02T12:14:30;96980;;;5.5;76
68891;BME280;55932;48.702;8.884;2023-02-02T12:19:25;96970;;;5.5;75.5
68891;BME280;55932;48.702;8.884;2023-02-02T12:21:58;96970;;;5.5;76
68891;BME280;55932;48.702;8.884;2023-02-02T12:24:26;96980;;;5.5;76
68891;BME280;55932;48.702;8.884;2023-02-02T12:26:56;96980;;;5.5;75.5
68891;BME280;55932;48.702;8.884;2023-02-02T12:29:30;96980;;;5.4;76
68891;BME280;55932;48.702;8.884;2023-02-02T12:33:10;96980;;;5.4;76
68891;BME280;55932;48.702;8.884;2023-02-02T12:39:38;96970;;;5.4;76
68891;BME280;55932;48.702;8.884;2023-02-02T12:44:39;96970;;;5.4;76
68891;BME280;55932;48.702;8.884;2023-02-02T12:47:11;96970;;;5.5;75.5
68891;BME280;55932;48.702;8.884;2023-02-02T12:50:52;96970;;;5.5;75.5
68891;BME280;55932;48.702;8.884;2023-02-02T12:54:34;96970;;;5.5;75.5
68891;BME280;55932;48.702;8.884;2023-02-02T12:57:05;96980;;;5.4;75.5
68891;BME280;55932;48.702;8.884;2023-02-02T12:59:39;96980;;;5.4;76
68891;BME280;55932;48.702;8.884;2023-02-02T13:02:03;96990;;;5.4;76
68891;BME280;55932;48.702;8.884;2023-02-02T13:07:09;96980;;;5.3;76
68891;BME280;55932;48.702;8.884;2023-02-02T13:10:08;96980;;;5.2;76
68891;BME280;55932;48.702;8.884;2023-02-02T13:17:04;96980;;;5.3;76
68891;BME280;55932;48.702;8.884;2023-02-02T13:19:34;96970;;;5.4;76
68891;BME280;55932;48.702;8.884;2023-02-02T13:22:03;96990;;;5.4;76
68891;BME280;55932;48.702;8.884;2023-02-02T13:24:33;96990;;;5.4;76
68891;BME280;55932;48.702;8.884;2023-02-02T13:27:04;96990;;;5.4;76
68891;BME280;55932;48.702;8.884;2023-02-02T13:29:42;97000;;;5.5;75.5
68891;BME280;55932;48.702;8.884;2023-02-02T13:32:10;97000;;;5.4;75.5
68891;BME280;55932;48.702;8.884;2023-02-02T13:34:40;97020;;;5.4;75.5
68891;BME280;55932;48.702;8.884;2023-02-02T13:37:12;97010;;;5.4;75.5
68891;BME280;55932;48.702;8.884;2023-02-02T13:47:19;97020;;;5.5;75.5
68891;BME280;55932;48.702;8.884;2023-02-02T13:49:54;97020;;;5.6;75.5
68891;BME280;55932;48.702;8.884;2023-02-02T13:59:52;97030;;;5.8;75.5
68891;BME280;55932;48.702;8.884;2023-02-02T14:04:58;97010;;;6.1;75
68891;BME280;55932;48.702;8.884;2023-02-02T14:07:36;97010;;;6.1;75
68891;BME280;55932;48.702;8.884;2023-02-02T14:09:58;97000;;;6.1;75
68891;BME280;55932;48.702;8.884;2023-02-02T14:14:52;97010;;;6;75
68891;BME280;55932;48.702;8.884;2023-02-02T14:17:50;97020;;;6;75
68891;BME280;55932;48.702;8.884;2023-02-02T14:22:56;97010;;;6.3;75
68891;BME280;55932;48.702;8.884;2023-02-02T14:24:56;97020;;;6.3;75
68891;BME280;55932;48.702;8.884;2023-02-02T14:29:58;97030;;;6.4;75
68891;BME280;55932;48.702;8.884;2023-02-02T14:35:53;97020;;;6.4;75
68891;BME280;55932;48.702;8.884;2023-02-02T14:37:33;97030;;;6.3;75
68891;BME280;55932;48.702;8.884;2023-02-02T14:40:19;97030;;;6.3;75
68891;BME280;55932;48.702;8.884;2023-02-02T14:42:50;97030;;;6.3;75.5
68891;BME280;55932;48.702;8.884;2023-02-02T14:45:14;97040;;;6.2;75.5
68891;BME280;55932;48.702;8.884;2023-02-02T14:47:41;97030;;;6.2;75.5
68891;BME280;55932;48.702;8.884;2023-02-02T14:50:20;97040;;;6.1;75.5
68891;BME280;55932;48.702;8.884;2023-02-02T14:55:04;97030;;;6.1;75.5
68891;BME280;55932;48.702;8.884;2023-02-02T14:57:35;97040;;;6;75.5
68891;BME280;55932;48.702;8.884;2023-02-02T15:00:20;97050;;;6;75.5
68891;BME280;55932;48.702;8.884;2023-02-02T15:02:37;97040;;;6;75.5
68891;BME280;55932;48.702;8.884;2023-02-02T15:05:33;97040;;;6;75.5
68891;BME280;55932;48.702;8.884;2023-02-02T15:07:49;97050;;;6;75.5
68891;BME280;55932;48.702;8.884;2023-02-02T15:15:09;97050;;;6;75.5
68891;BME280;55932;48.702;8.884;2023-02-02T15:17:53;97050;;;5.9;75.5
68891;BME280;55932;48.702;8.884;2023-02-02T15:20:11;97070;;;5.9;75.5
68891;BME280;55932;48.702;8.884;2023-02-02T15:22:40;97060;;;5.9;76
68891;BME280;55932;48.702;8.884;2023-02-02T15:25:12;97050;;;5.8;75.5
68891;BME280;55932;48.702;8.884;2023-02-02T15:27:38;97050;;;5.8;75.5
68891;BME280;55932;48.702;8.884;2023-02-02T15:30:10;97060;;;5.8;76
68891;BME280;55932;48.702;8.884;2023-02-02T15:32:39;97050;;;5.8;76
68891;BME280;55932;48.702;8.884;2023-02-02T15:35:14;97050;;;5.8;76
68891;BME280;55932;48.702;8.884;2023-02-02T15:45:29;97050;;;5.7;76
68891;BME280;55932;48.702;8.884;2023-02-02T15:47:44;97060;;;5.7;76
68891;BME280;55932;48.702;8.884;2023-02-02T15:52:52;97070;;;5.6;76
68891;BME280;55932;48.702;8.884;2023-02-02T15:55:24;97070;;;5.6;76
68891;BME280;55932;48.702;8.884;2023-02-02T15:58:01;97070;;;5.6;76
68891;BME280;55932;48.702;8.884;2023-02-02T16:00:28;97070;;;5.5;76
68891;BME280;55932;48.702;8.884;2023-02-02T16:02:58;97080;;;5.5;76
68891;BME280;55932;48.702;8.884;2023-02-02T16:05:38;97090;;;5.5;76
68891;BME280;55932;48.702;8.884;2023-02-02T16:07:58;97090;;;5.5;76
68891;BME280;55932;48.702;8.884;2023-02-02T16:10:40;97100;;;5.5;76
68891;BME280;55932;48.702;8.884;2023-02-02T16:20:38;97120;;;5.6;76
68891;BME280;55932;48.702;8.884;2023-02-02T16:23:11;97130;;;5.6;76
68891;BME280;55932;48.702;8.884;2023-02-02T16:28:02;97140;;;5.6;76
68891;BME280;55932;48.702;8.884;2023-02-02T16:30:35;97150;;;5.6;76
68891;BME280;55932;48.702;8.884;2023-02-02T16:34:12;97150;;;5.6;76
68891;BME280;55932;48.702;8.884;2023-02-02T16:40:29;97170;;;5.6;76
68891;BME280;55932;48.702;8.884;2023-02-02T16:43:02;97180;;;5.6;76
68891;BME280;55932;48.702;8.884;2023-02-02T16:45:32;97190;;;5.6;76
68891;BME280;55932;48.702;8.884;2023-02-02T16:48:18;97200;;;5.6;76
68891;BME280;55932;48.702;8.884;2023-02-02T16:50:39;97210;;;5.6;76
68891;BME280;55932;48.702;8.884;2023-02-02T16:53:10;97210;;;5.6;76
68891;BME280;55932;48.702;8.884;2023-02-02T16:58:11;97220;;;5.6;76
68891;BME280;55932;48.702;8.884;2023-02-02T17:00:36;97230;;;5.6;76
68891;BME280;55932;48.702;8.884;2023-02-02T17:08:08;97240;;;5.5;76
68891;BME280;55932;48.702;8.884;2023-02-02T17:10:41;97240;;;5.6;76
68891;BME280;55932;48.702;8.884;2023-02-02T17:13:43;97260;;;5.5;76
68891;BME280;55932;48.702;8.884;2023-02-02T17:15:41;97260;;;5.5;76
68891;BME280;55932;48.702;8.884;2023-02-02T17:20:43;97260;;;5.5;76
68891;BME280;55932;48.702;8.884;2023-02-02T17:23:14;97270;;;5.5;76
68891;BME280;55932;48.702;8.884;2023-02-02T17:25:45;97260;;;5.5;76
68891;BME280;55932;48.702;8.884;2023-02-02T17:28:16;97270;;;5.5;76
68891;BME280;55932;48.702;8.884;2023-02-02T17:40:54;97290;;;5.5;76
68891;BME280;55932;48.702;8.884;2023-02-02T17:43:30;97280;;;5.5;76
68891;BME280;55932;48.702;8.884;2023-02-02T17:45:56;97280;;;5.5;76
68891;BME280;55932;48.702;8.884;2023-02-02T17:50:51;97280;;;5.4;76
68891;BME280;55932;48.702;8.884;2023-02-02T17:53:22;97280;;;5.4;76
68891;BME280;55932;48.702;8.884;2023-02-02T17:55:53;97280;;;5.4;76
68891;BME280;55932;48.702;8.884;2023-02-02T18:03:26;97280;;;5.4;76
68891;BME280;55932;48.702;8.884;2023-02-02T18:05:56;97280;;;5.4;76
68891;BME280;55932;48.702;8.884;2023-02-02T18:11:15;97290;;;5.4;76
68891;BME280;55932;48.702;8.884;2023-02-02T18:13:41;97290;;;5.4;76
68891;BME280;55932;48.702;8.884;2023-02-02T18:18:35;97300;;;5.4;76
68891;BME280;55932;48.702;8.884;2023-02-02T18:21:07;97300;;;5.4;76
68891;BME280;55932;48.702;8.884;2023-02-02T18:23:36;97310;;;5.4;76
68891;BME280;55932;48.702;8.884;2023-02-02T18:33:33;97320;;;5.1;76
68891;BME280;55932;48.702;8.884;2023-02-02T18:36:05;97310;;;5.1;76
68891;BME280;55932;48.702;8.884;2023-02-02T18:38:35;97310;;;5;76
68891;BME280;55932;48.702;8.884;2023-02-02T18:41:05;97310;;;5;76.5
68891;BME280;55932;48.702;8.884;2023-02-02T18:43:43;97300;;;4.9;76.5
68891;BME280;55932;48.702;8.884;2023-02-02T18:46:14;97300;;;4.9;76.5
68891;BME280;55932;48.702;8.884;2023-02-02T18:48:45;97300;;;4.9;76
68891;BME280;55932;48.702;8.884;2023-02-02T18:58:41;97300;;;4.7;76.5
68891;BME280;55932;48.702;8.884;2023-02-02T19:01:13;97300;;;4.7;76.5
68891;BME280;55932;48.702;8.884;2023-02-02T19:03:46;97290;;;4.7;76.5
68891;BME280;55932;48.702;8.884;2023-02-02T19:06:14;97300;;;4.6;76.5
68891;BME280;55932;48.702;8.884;2023-02-02T19:08:50;97300;;;4.6;76.5
68891;BME280;55932;48.702;8.884;2023-02-02T19:11:26;97300;;;4.5;76.5
68891;BME280;55932;48.702;8.884;2023-02-02T19:16:25;97300;;;4.4;76.5
68891;BME280;55932;48.702;8.884;2023-02-02T19:18:47;97310;;;4.3;76.5
68891;BME280;55932;48.702;8.884;2023-02-02T19:26:21;97300;;;4.2;76.5
68891;BME280;55932;48.702;8.884;2023-02-02T19:28:51;97300;;;4.2;76.5
68891;BME280;55932;48.702;8.884;2023-02-02T19:31:30;97300;;;4.1;76.5
68891;BME280;55932;48.702;8.884;2023-02-02T19:33:52;97300;;;4.1;76.5
68891;BME280;55932;48.702;8.884;2023-02-02T19:39:03;97300;;;4.1;76.5
68891;BME280;55932;48.702;8.884;2023-02-02T19:41:31;97300;;;4.1;76.5
68891;BME280;55932;48.702;8.884;2023-02-02T19:46:26;97300;;;4.2;76.5
68891;BME280;55932;48.702;8.884;2023-02-02T19:56:32;97330;;;4.2;76.5
68891;BME280;55932;48.702;8.884;2023-02-02T19:59:00;97330;;;4.2;76.5
68891;BME280;55932;48.702;8.884;2023-02-02T20:01:31;97330;;;4.1;76.5
68891;BME280;55932;48.702;8.884;2023-02-02T20:04:01;97340;;;4.1;76.5
68891;BME280;55932;48.702;8.884;2023-02-02T20:06:38;97340;;;4.1;76.5
68891;BME280;55932;48.702;8.884;2023-02-02T20:09:17;97350;;;4.1;76.5
68891;BME280;55932;48.702;8.884;2023-02-02T20:11:41;97350;;;4.1;76.5
68891;BME280;55932;48.702;8.884;2023-02-02T20:14:36;97340;;;4.1;76.5
68891;BME280;55932;48.702;8.884;2023-02-02T20:16:35;97330;;;4.1;76.5
68891;BME280;55932;48.702;8.884;2023-02-02T20:24:29;97330;;;4.1;76.5
68891;BME280;55932;48.702;8.884;2023-02-02T20:26:54;97330;;;4.1;76.5
68891;BME280;55932;48.702;8.884;2023-02-02T20:29:23;97330;;;4;76.5
68891;BME280;55932;48.702;8.884;2023-02-02T20:36:44;97320;;;4;76.5
68891;BME280;55932;48.702;8.884;2023-02-02T20:39:48;97300;;;4;76.5
68891;BME280;55932;48.702;8.884;2023-02-02T20:41:46;97300;;;4;76.5
68891;BME280;55932;48.702;8.884;2023-02-02T20:44:24;97300;;;4;76.5
68891;BME280;55932;48.702;8.884;2023-02-02T20:46:54;97280;;;3.9;76.5
68891;BME280;55932;48.702;8.884;2023-02-02T20:51:48;97280;;;3.8;76.5
68891;BME280;55932;48.702;8.884;2023-02-02T20:54:19;97290;;;3.8;76.5
68891;BME280;55932;48.702;8.884;2023-02-02T20:56:52;97300;;;3.8;76.5
68891;BME280;55932;48.702;8.884;2023-02-02T20:59:27;97300;;;3.7;76.5
68891;BME280;55932;48.702;8.884;2023-02-02T21:01:57;97300;;;3.7;76.5
68891;BME280;55932;48.702;8.884;2023-02-02T21:04:27;97310;;;3.7;76.5
68891;BME280;55932;48.702;8.884;2023-02-02T21:06:54;97300;;;3.6;76.5
68891;BME280;55932;48.702;8.884;2023-02-02T21:09:23;97310;;;3.6;76.5
68891;BME280;55932;48.702;8.884;2023-02-02T21:11:54;97310;;;3.6;76.5